createdAt,value
2023-03-05T00:00:12.552Z,101096.38
2023-03-05T00:03:14.142Z,101092.41
2023-03-05T00:06:16.646Z,101091.53
2023-03-05T00:09:19.012Z,101087.63
2023-03-05T00:12:20.617Z,101079.84
2023-03-05T00:15:22.218Z,101072.75
2023-03-05T00:18:24.000Z,101070.09
2023-03-05T00:21:28.038Z,101060.44
2023-03-05T00:24:30.200Z,101056.88
2023-03-05T00:27:31.667Z,101051.81
2023-03-05T00:30:33.484Z,101051.41
2023-03-05T00:33:35.228Z,101045.34
2023-03-05T00:36:40.227Z,101047.88
2023-03-05T00:39:42.416Z,101038.06
2023-03-05T00:42:43.959Z,101042.00
2023-03-05T00:45:45.276Z,101035.75
2023-03-05T00:48:46.752Z,101034.38
2023-03-05T00:51:48.080Z,101027.47
2023-03-05T00:54:50.295Z,101028.44
2023-03-05T00:57:51.768Z,101034.97
2023-03-05T01:00:56.580Z,101025.13
2023-03-05T01:03:59.314Z,101022.25
2023-03-05T01:07:00.745Z,101013.28
2023-03-05T01:10:07.066Z,101010.31
2023-03-05T01:13:08.585Z,101009.44
2023-03-05T01:16:11.922Z,101008.88
2023-03-05T01:19:14.359Z,101005.72
2023-03-05T01:22:15.715Z,100990.75
2023-03-05T01:25:18.346Z,101001.28
2023-03-05T01:28:19.848Z,100994.63
2023-03-05T01:31:21.252Z,101001.72
2023-03-05T01:34:22.853Z,100996.00
2023-03-05T01:37:24.162Z,100987.53
2023-03-05T01:40:29.505Z,100985.72
2023-03-05T01:43:30.956Z,100984.91
2023-03-05T01:46:34.548Z,100986.78
2023-03-05T01:49:38.270Z,100980.09
2023-03-05T01:52:43.526Z,100976.34
2023-03-05T01:55:45.968Z,100970.44
2023-03-05T01:58:47.454Z,100971.81
2023-03-05T02:01:52.839Z,100972.25
2023-03-05T02:04:57.322Z,100972.69
2023-03-05T02:08:00.534Z,100969.09
2023-03-05T02:11:03.413Z,100963.88
2023-03-05T02:14:08.444Z,100963.84
2023-03-05T02:17:11.804Z,100954.66
2023-03-05T02:20:18.051Z,100958.00
2023-03-05T02:23:21.763Z,100956.06
2023-03-05T02:26:23.056Z,100958.00
2023-03-05T02:29:24.355Z,100946.94
2023-03-05T02:32:25.834Z,100948.41
2023-03-05T02:35:27.333Z,100947.81
2023-03-05T02:38:29.479Z,100940.34
2023-03-05T02:41:30.909Z,100936.75
2023-03-05T02:44:32.441Z,100933.56
2023-03-05T02:47:33.884Z,100928.94
2023-03-05T02:50:36.146Z,100925.00
2023-03-05T02:53:38.242Z,100922.94
2023-03-05T02:56:39.696Z,100918.06
2023-03-05T02:59:41.038Z,100908.56
2023-03-05T03:02:42.660Z,100904.03
2023-03-05T03:05:44.034Z,100915.06
2023-03-05T03:08:50.003Z,100908.56
2023-03-05T03:11:51.444Z,100901.75
2023-03-05T03:14:52.777Z,100901.56
2023-03-05T03:17:54.671Z,100900.09
2023-03-05T03:20:55.987Z,100895.31
2023-03-05T03:23:58.490Z,100885.97
2023-03-05T03:27:00.129Z,100896.50
2023-03-05T03:30:04.010Z,100886.41
2023-03-05T03:33:05.496Z,100884.00
2023-03-05T03:36:07.636Z,100883.28
2023-03-05T03:39:09.962Z,100879.41
2023-03-05T03:42:11.527Z,100877.72
2023-03-05T03:45:13.278Z,100871.25
2023-03-05T03:48:14.734Z,100874.75
2023-03-05T03:51:16.048Z,100869.88
2023-03-05T03:54:19.393Z,100867.00
2023-03-05T03:57:20.978Z,100864.09
2023-03-05T04:00:22.449Z,100860.31
2023-03-05T04:03:23.947Z,100856.13
2023-03-05T04:06:25.375Z,100852.81
2023-03-05T04:09:27.513Z,100855.50
2023-03-05T04:12:28.778Z,100853.94
2023-03-05T04:15:30.188Z,100854.91
2023-03-05T04:18:32.578Z,100856.84
2023-03-05T04:21:34.043Z,100840.34
2023-03-05T04:24:36.137Z,100845.31
2023-03-05T04:27:39.348Z,100842.63
2023-03-05T04:30:40.868Z,100833.41
2023-03-05T04:33:42.412Z,100837.72
2023-03-05T04:36:43.802Z,100835.97
2023-03-05T04:39:45.859Z,100828.56
2023-03-05T04:42:47.405Z,100824.28
2023-03-05T04:45:48.935Z,100823.19
2023-03-05T04:48:50.392Z,100822.31
2023-03-05T04:51:51.662Z,100826.09
2023-03-05T04:54:53.892Z,100829.41
2023-03-05T04:57:55.161Z,100821.13
2023-03-05T05:01:01.425Z,100821.66
2023-03-05T05:04:02.846Z,100816.72
2023-03-05T05:07:04.446Z,100810.84
2023-03-05T05:10:07.889Z,100813.50
2023-03-05T05:13:09.215Z,100814.03
2023-03-05T05:16:10.843Z,100811.22
2023-03-05T05:19:12.342Z,100812.06
2023-03-05T05:22:13.616Z,100813.84
2023-03-05T05:25:15.655Z,100813.63
2023-03-05T05:28:16.921Z,100814.25
2023-03-05T05:31:19.077Z,100802.63
2023-03-05T05:34:20.482Z,100804.50
2023-03-05T05:37:21.908Z,100805.06
2023-03-05T05:40:23.888Z,100804.31
2023-03-05T05:43:25.220Z,100808.31
2023-03-05T05:46:28.222Z,100808.72
2023-03-05T05:49:29.556Z,100818.69
2023-03-05T05:52:31.159Z,100812.88
2023-03-05T05:55:33.182Z,100809.56
2023-03-05T05:58:34.789Z,100811.41
2023-03-05T06:01:36.365Z,100813.75
2023-03-05T06:04:39.228Z,100818.31
2023-03-05T06:07:40.560Z,100814.22
2023-03-05T06:10:42.600Z,100812.78
2023-03-05T06:13:44.054Z,100805.59
2023-03-05T06:16:45.373Z,100806.22
2023-03-05T06:19:46.735Z,100808.31
2023-03-05T06:22:48.055Z,100798.09
2023-03-05T06:25:50.288Z,100809.84
2023-03-05T06:28:52.317Z,100802.81
2023-03-05T06:31:53.752Z,100804.78
2023-03-05T06:34:55.230Z,100806.28
2023-03-05T06:37:56.669Z,100811.34
2023-03-05T06:41:01.460Z,100808.22
2023-03-05T06:44:03.347Z,100804.94
2023-03-05T06:47:04.903Z,100803.81
2023-03-05T06:50:06.767Z,100801.94
2023-03-05T06:53:08.125Z,100810.53
2023-03-05T06:56:10.560Z,100798.69
2023-03-05T06:59:14.286Z,100806.41
2023-03-05T07:02:16.063Z,100802.94
2023-03-05T07:05:17.512Z,100796.91
2023-03-05T07:08:19.036Z,100803.97
2023-03-05T07:11:22.023Z,100810.03
2023-03-05T07:14:23.393Z,100815.03
2023-03-05T07:17:24.953Z,100807.56
2023-03-05T07:20:26.271Z,100808.34
2023-03-05T07:23:27.969Z,100815.88
2023-03-05T07:26:32.552Z,100819.78
2023-03-05T07:29:34.080Z,100818.38
2023-03-05T07:32:35.815Z,100824.38
2023-03-05T07:35:40.233Z,100813.41
2023-03-05T07:38:41.627Z,100815.03
2023-03-05T07:41:43.548Z,100820.91
2023-03-05T07:44:45.227Z,100819.25
2023-03-05T07:47:46.721Z,100812.38
2023-03-05T07:50:48.571Z,100807.59
2023-03-05T07:53:52.164Z,100815.75
2023-03-05T07:56:54.773Z,100815.91
2023-03-05T07:59:56.344Z,100811.13
2023-03-05T08:02:57.651Z,100815.13
2023-03-05T08:05:58.950Z,100813.25
2023-03-05T08:09:00.630Z,100815.31
2023-03-05T08:12:02.707Z,100809.25
2023-03-05T08:15:04.736Z,100809.69
2023-03-05T08:18:06.232Z,100804.63
2023-03-05T08:21:15.581Z,100798.94
2023-03-05T08:24:17.054Z,100802.84
2023-03-05T08:27:18.987Z,100796.06
2023-03-05T08:30:21.941Z,100789.47
2023-03-05T08:33:23.219Z,100787.16
2023-03-05T08:36:24.871Z,100793.81
2023-03-05T08:39:26.350Z,100784.06
2023-03-05T08:42:28.291Z,100775.44
2023-03-05T08:45:29.676Z,100760.44
2023-03-05T08:48:31.525Z,100769.19
2023-03-05T08:51:34.029Z,100774.66
2023-03-05T08:54:36.727Z,100773.41
2023-03-05T08:57:38.661Z,100762.31
2023-03-05T09:00:40.458Z,100757.56
2023-03-05T09:03:42.114Z,100763.50
2023-03-05T09:06:43.400Z,100763.22
2023-03-05T09:09:44.866Z,100758.75
2023-03-05T09:12:48.431Z,100764.59
2023-03-05T09:15:54.431Z,100758.50
2023-03-05T09:18:55.906Z,100760.19
2023-03-05T09:21:57.286Z,100756.94
2023-03-05T09:24:58.708Z,100755.28
2023-03-05T09:28:00.646Z,100752.97
2023-03-05T09:31:03.526Z,100748.97
2023-03-05T09:34:06.542Z,100737.66
2023-03-05T09:37:08.434Z,100738.16
2023-03-05T09:40:15.446Z,100737.03
2023-03-05T09:43:30.152Z,100739.91
2023-03-05T09:46:44.141Z,100732.28
2023-03-05T09:49:53.631Z,100731.31
2023-03-05T09:52:59.151Z,100736.75
2023-03-05T09:56:04.800Z,100737.81
2023-03-05T09:59:19.888Z,100736.22
2023-03-05T10:02:25.803Z,100733.63
2023-03-05T10:05:37.151Z,100733.03
2023-03-05T10:08:48.583Z,100724.88
2023-03-05T10:11:54.654Z,100730.47
2023-03-05T10:15:00.057Z,100723.16
2023-03-05T10:18:18.321Z,100734.84
2023-03-05T10:21:29.845Z,100724.06
2023-03-05T10:24:45.393Z,100731.47
2023-03-05T10:27:49.250Z,100727.16
2023-03-05T10:31:02.868Z,100728.56
2023-03-05T10:34:30.041Z,100723.13
2023-03-05T10:37:49.674Z,100723.13
2023-03-05T10:40:54.086Z,100720.41
2023-03-05T10:44:03.780Z,100706.31
2023-03-05T10:47:15.705Z,100699.00
2023-03-05T10:50:20.028Z,100699.97
2023-03-05T10:53:27.509Z,100703.44
2023-03-05T10:56:31.052Z,100698.78
2023-03-05T10:59:32.385Z,100698.50
2023-03-05T11:02:53.379Z,100694.00
2023-03-05T11:06:01.063Z,100689.38
2023-03-05T11:09:20.941Z,100691.28
2023-03-05T11:12:26.996Z,100681.88
2023-03-05T11:15:30.030Z,100685.28
2023-03-05T11:18:34.152Z,100678.91
2023-03-05T11:21:35.441Z,100684.13
2023-03-05T11:24:37.142Z,100684.47
2023-03-05T11:27:43.886Z,100681.19
2023-03-05T11:30:55.589Z,100683.41
2023-03-05T11:34:00.963Z,100669.59
2023-03-05T11:37:05.472Z,100673.00
2023-03-05T11:40:22.895Z,100661.59
2023-03-05T11:43:25.820Z,100662.63
2023-03-05T11:46:28.471Z,100670.66
2023-03-05T11:49:33.461Z,100667.38
2023-03-05T11:52:45.469Z,100660.00
2023-03-05T11:55:50.240Z,100654.13
2023-03-05T11:58:56.914Z,100664.00
2023-03-05T12:01:58.536Z,100657.13
2023-03-05T12:05:02.526Z,100642.66
2023-03-05T12:08:05.225Z,100633.66
2023-03-05T12:11:14.609Z,100631.13
2023-03-05T12:14:23.623Z,100631.53
2023-03-05T12:17:32.308Z,100635.16
2023-03-05T12:20:42.603Z,100615.69
2023-03-05T12:23:46.591Z,100607.16
2023-03-05T12:26:56.336Z,100604.91
2023-03-05T12:30:00.767Z,100604.19
2023-03-05T12:33:03.296Z,100601.66
2023-03-05T12:36:36.114Z,100609.47
2023-03-05T12:39:57.028Z,100596.06
2023-03-05T12:43:00.428Z,100597.72
2023-03-05T12:46:24.992Z,100597.97
2023-03-05T12:49:35.086Z,100591.78
2023-03-05T12:52:39.908Z,100598.16
2023-03-05T12:55:55.015Z,100593.28
2023-03-05T12:58:59.882Z,100589.84
2023-03-05T13:02:10.700Z,100589.09
2023-03-05T13:05:20.897Z,100588.78
2023-03-05T13:08:25.216Z,100593.22
2023-03-05T13:11:28.652Z,100589.16
2023-03-05T13:14:34.317Z,100579.91
2023-03-05T13:17:38.380Z,100570.63
2023-03-05T13:20:42.023Z,100573.16
2023-03-05T13:23:47.510Z,100560.53
2023-03-05T13:26:49.015Z,100557.16
2023-03-05T13:29:52.043Z,100556.81
2023-03-05T13:33:02.111Z,100557.97
2023-03-05T13:36:04.963Z,100559.50
2023-03-05T13:39:07.137Z,100569.69
2023-03-05T13:42:16.778Z,100558.50
2023-03-05T13:45:26.643Z,100570.16
2023-03-05T13:48:28.168Z,100572.38
2023-03-05T13:51:43.577Z,100571.38
2023-03-05T13:54:45.666Z,100570.19
2023-03-05T13:57:50.099Z,100561.22
2023-03-05T14:01:04.640Z,100563.47
2023-03-05T14:04:17.612Z,100565.78
2023-03-05T14:07:31.165Z,100564.69
2023-03-05T14:10:36.325Z,100563.00
2023-03-05T14:13:37.931Z,100561.31
2023-03-05T14:16:39.360Z,100555.81
2023-03-05T14:19:40.808Z,100558.88
2023-03-05T14:22:44.707Z,100560.75
2023-03-05T14:25:46.964Z,100550.72
2023-03-05T14:28:53.034Z,100553.03
2023-03-05T14:31:56.932Z,100554.34
2023-03-05T14:35:00.408Z,100554.16
2023-03-05T14:38:02.071Z,100551.97
2023-03-05T14:41:20.509Z,100545.19
2023-03-05T14:44:24.641Z,100547.34
2023-03-05T14:47:27.529Z,100536.63
2023-03-05T14:50:31.836Z,100538.56
2023-03-05T14:53:38.180Z,100530.66
2023-03-05T14:56:40.155Z,100526.25
2023-03-05T14:59:41.518Z,100531.09
2023-03-05T15:02:43.002Z,100532.75
2023-03-05T15:05:47.139Z,100535.69
2023-03-05T15:08:48.551Z,100537.44
2023-03-05T15:11:50.553Z,100534.41
2023-03-05T15:14:52.463Z,100524.28
2023-03-05T15:17:55.300Z,100517.38
2023-03-05T15:20:56.811Z,100518.72
2023-03-05T15:23:58.860Z,100514.34
2023-03-05T15:27:02.506Z,100511.25
2023-03-05T15:30:04.742Z,100518.00
2023-03-05T15:33:08.794Z,100511.84
2023-03-05T15:36:10.320Z,100514.69
2023-03-05T15:39:11.975Z,100507.09
2023-03-05T15:42:13.990Z,100511.59
2023-03-05T15:45:15.975Z,100509.81
2023-03-05T15:48:17.494Z,100505.72
2023-03-05T15:51:20.505Z,100510.66
2023-03-05T15:54:22.129Z,100505.81
2023-03-05T15:57:24.060Z,100494.41
2023-03-05T16:00:30.229Z,100496.25
2023-03-05T16:03:31.661Z,100487.38
2023-03-05T16:06:34.066Z,100491.59
2023-03-05T16:09:38.509Z,100493.19
2023-03-05T16:12:42.208Z,100494.41
2023-03-05T16:15:44.425Z,100493.44
2023-03-05T16:18:47.461Z,100503.16
2023-03-05T16:21:48.744Z,100494.13
2023-03-05T16:24:50.236Z,100482.91
2023-03-05T16:27:52.159Z,100479.03
2023-03-05T16:30:54.194Z,100486.34
2023-03-05T16:33:55.600Z,100493.13
2023-03-05T16:37:00.067Z,100490.88
2023-03-05T16:40:01.537Z,100483.72
2023-03-05T16:43:03.688Z,100486.88
2023-03-05T16:46:05.169Z,100481.44
2023-03-05T16:49:06.652Z,100487.56
2023-03-05T16:52:19.487Z,100488.25
2023-03-05T16:55:21.599Z,100495.94
2023-03-05T16:58:23.640Z,100488.41
2023-03-05T17:01:25.549Z,100489.34
2023-03-05T17:04:27.071Z,100491.81
2023-03-05T17:07:28.517Z,100497.47
2023-03-05T17:10:30.457Z,100499.34
2023-03-05T17:13:32.368Z,100504.84
2023-03-05T17:16:33.868Z,100496.47
2023-03-05T17:19:35.237Z,100493.53
2023-03-05T17:22:36.734Z,100492.00
2023-03-05T17:25:38.059Z,100494.28
2023-03-05T17:28:40.328Z,100490.97
2023-03-05T17:31:41.742Z,100488.25
2023-03-05T17:34:43.668Z,100489.03
2023-03-05T17:37:45.170Z,100479.22
2023-03-05T17:40:46.645Z,100481.56
2023-03-05T17:43:49.533Z,100473.22
2023-03-05T17:46:50.981Z,100469.09
2023-03-05T17:49:52.411Z,100474.25
2023-03-05T17:52:54.494Z,100464.06
2023-03-05T17:55:56.015Z,100473.66
2023-03-05T17:58:58.193Z,100461.53
2023-03-05T18:01:59.976Z,100465.50
2023-03-05T18:05:03.242Z,100476.56
2023-03-05T18:08:05.643Z,100479.97
2023-03-05T18:11:06.963Z,100476.47
2023-03-05T18:14:09.080Z,100470.81
2023-03-05T18:17:10.374Z,100467.69
2023-03-05T18:20:24.015Z,100466.03
2023-03-05T18:23:25.275Z,100467.34
2023-03-05T18:26:26.736Z,100466.34
2023-03-05T18:29:28.661Z,100465.03
2023-03-05T18:32:30.414Z,100465.25
2023-03-05T18:35:32.779Z,100454.47
2023-03-05T18:38:34.607Z,100463.84
2023-03-05T18:41:36.474Z,100451.31
2023-03-05T18:44:38.663Z,100458.44
2023-03-05T18:47:41.308Z,100457.78
2023-03-05T18:50:43.188Z,100458.41
2023-03-05T18:53:44.717Z,100451.97
2023-03-05T18:56:46.042Z,100451.69
2023-03-05T18:59:48.015Z,100444.22
2023-03-05T19:02:49.549Z,100447.63
2023-03-05T19:05:51.411Z,100450.34
2023-03-05T19:08:56.828Z,100443.47
2023-03-05T19:11:58.160Z,100438.88
2023-03-05T19:15:01.281Z,100442.44
2023-03-05T19:18:02.585Z,100442.44
2023-03-05T19:21:04.500Z,100431.19
2023-03-05T19:24:06.146Z,100435.56
2023-03-05T19:27:10.945Z,100433.91
2023-03-05T19:30:15.158Z,100430.97
2023-03-05T19:33:16.599Z,100428.53
2023-03-05T19:36:17.960Z,100427.66
2023-03-05T19:39:19.480Z,100426.00
2023-03-05T19:42:20.836Z,100427.41
2023-03-05T19:45:22.988Z,100417.84
2023-03-05T19:48:24.269Z,100415.13
2023-03-05T19:51:26.523Z,100416.59
2023-03-05T19:54:27.952Z,100415.97
2023-03-05T19:57:29.385Z,100413.47
2023-03-05T20:00:31.373Z,100417.03
2023-03-05T20:03:32.836Z,100412.06
2023-03-05T20:06:34.199Z,100410.16
2023-03-05T20:09:35.664Z,100406.00
2023-03-05T20:12:38.386Z,100404.72
2023-03-05T20:15:40.534Z,100402.22
2023-03-05T20:18:41.839Z,100397.66
2023-03-05T20:21:44.932Z,100397.22
2023-03-05T20:24:46.803Z,100388.66
2023-03-05T20:27:48.289Z,100388.22
2023-03-05T20:30:54.022Z,100390.75
2023-03-05T20:33:55.794Z,100384.50
2023-03-05T20:36:57.585Z,100382.84
2023-03-05T20:39:58.855Z,100380.13
2023-03-05T20:43:00.155Z,100383.00
2023-03-05T20:46:03.559Z,100380.50
2023-03-05T20:49:05.645Z,100378.63
2023-03-05T20:52:06.938Z,100377.81
2023-03-05T20:55:09.542Z,100372.59
2023-03-05T20:58:11.403Z,100369.25
2023-03-05T21:01:13.709Z,100365.53
2023-03-05T21:04:15.620Z,100356.81
2023-03-05T21:07:17.188Z,100353.03
2023-03-05T21:10:19.574Z,100351.88
2023-03-05T21:13:21.206Z,100349.13
2023-03-05T21:16:26.011Z,100346.91
2023-03-05T21:19:27.537Z,100351.50
2023-03-05T21:22:28.810Z,100348.16
2023-03-05T21:25:31.568Z,100344.41
2023-03-05T21:28:32.936Z,100343.53
2023-03-05T21:31:36.840Z,100335.84
2023-03-05T21:34:38.145Z,100337.91
2023-03-05T21:37:41.913Z,100331.47
2023-03-05T21:40:47.618Z,100328.56
2023-03-05T21:43:49.040Z,100316.50
2023-03-05T21:46:51.033Z,100310.22
2023-03-05T21:49:52.491Z,100312.72
2023-03-05T21:52:54.033Z,100309.59
2023-03-05T21:56:04.552Z,100306.06
2023-03-05T21:59:05.855Z,100293.38
2023-03-05T22:02:11.457Z,100297.13
2023-03-05T22:05:14.808Z,100287.94
2023-03-05T22:08:16.366Z,100289.38
2023-03-05T22:11:18.206Z,100289.22
2023-03-05T22:14:19.815Z,100281.31
2023-03-05T22:17:21.798Z,100272.53
2023-03-05T22:20:23.235Z,100271.47
2023-03-05T22:23:28.454Z,100268.56
2023-03-05T22:26:34.549Z,100270.00
2023-03-05T22:29:35.786Z,100262.31
2023-03-05T22:32:37.984Z,100249.44
2023-03-05T22:35:40.130Z,100245.91
2023-03-05T22:38:42.416Z,100239.06
2023-03-05T22:41:43.739Z,100238.41
2023-03-05T22:44:45.185Z,100235.50
2023-03-05T22:47:48.908Z,100229.28
2023-03-05T22:50:55.225Z,100229.06
2023-03-05T22:53:56.515Z,100222.16
2023-03-05T22:56:58.041Z,100215.72
2023-03-05T22:59:59.424Z,100213.84
2023-03-05T23:03:01.644Z,100212.38
2023-03-05T23:06:04.305Z,100206.34
2023-03-05T23:09:05.867Z,100198.63
2023-03-05T23:12:07.653Z,100206.56
2023-03-05T23:15:12.093Z,100196.97
2023-03-05T23:18:14.486Z,100202.81
2023-03-05T23:21:15.857Z,100195.72
2023-03-05T23:24:17.582Z,100191.81
2023-03-05T23:27:19.390Z,100191.59
2023-03-05T23:30:22.088Z,100190.56
2023-03-05T23:33:24.216Z,100186.78
2023-03-05T23:36:26.077Z,100185.97
2023-03-05T23:39:27.362Z,100186.78
2023-03-05T23:42:28.833Z,100180.56
2023-03-05T23:45:30.736Z,100178.69
2023-03-05T23:48:32.814Z,100170.94
2023-03-05T23:51:34.396Z,100168.72
2023-03-05T23:54:35.845Z,100165.81
2023-03-05T23:57:37.270Z,100159.03
